sensor_id;sensor_type;location;lat;lon;timestamp;pressure;altitude;pressure_sealevel;temperature;humidity
39739;BME280;25422;48.286;8.484;2022-11-25T00:00:42;93966.72;;;-0.59;100.00
39739;BME280;25422;48.286;8.484;2022-11-25T00:03:07;93961.09;;;-0.64;100.00
39739;BME280;25422;48.286;8.484;2022-11-25T00:05:33;93949.47;;;-0.57;100.00
39739;BME280;25422;48.286;8.484;2022-11-25T00:07:58;93962.47;;;-0.47;100.00
39739;BME280;25422;48.286;8.484;2022-11-25T00:10:24;93957.47;;;-0.48;100.00
39739;BME280;25422;48.286;8.484;2022-11-25T00:12:49;93953.63;;;-0.43;100.00
39739;BME280;25422;48.286;8.484;2022-11-25T00:15:14;93953.75;;;-0.44;100.00
39739;BME280;25422;48.286;8.484;2022-11-25T00:17:40;93947.19;;;-0.48;100.00
39739;BME280;25422;48.286;8.484;2022-11-25T00:20:06;93956.19;;;-0.43;100.00
39739;BME280;25422;48.286;8.484;2022-11-25T00:22:31;93954.44;;;-0.42;100.00
39739;BME280;25422;48.286;8.484;2022-11-25T00:24:57;93946.69;;;-0.29;100.00
39739;BME280;25422;48.286;8.484;2022-11-25T00:27:22;93946.22;;;-0.23;100.00
39739;BME280;25422;48.286;8.484;2022-11-25T00:29:48;93938.34;;;-0.09;100.00
39739;BME280;25422;48.286;8.484;2022-11-25T00:32:13;93948.03;;;-0.12;100.00
39739;BME280;25422;48.286;8.484;2022-11-25T00:34:38;93939.94;;;-0.19;100.00
39739;BME280;25422;48.286;8.484;2022-11-25T00:37:06;93931.66;;;-0.23;100.00
39739;BME280;25422;48.286;8.484;2022-11-25T00:39:31;93940.91;;;-0.20;100.00
39739;BME280;25422;48.286;8.484;2022-11-25T00:41:58;93933.50;;;-0.25;100.00
39739;BME280;25422;48.286;8.484;2022-11-25T00:44:42;93934.44;;;-0.26;100.00
39739;BME280;25422;48.286;8.484;2022-11-25T00:47:13;93932.72;;;-0.14;100.00
39739;BME280;25422;48.286;8.484;2022-11-25T00:49:43;93937.56;;;0.02;100.00
39739;BME280;25422;48.286;8.484;2022-11-25T00:52:12;93944.03;;;0.08;100.00
39739;BME280;25422;48.286;8.484;2022-11-25T00:54:38;93939.84;;;0.18;100.00
39739;BME280;25422;48.286;8.484;2022-11-25T00:57:03;93941.81;;;0.14;100.00
39739;BME280;25422;48.286;8.484;2022-11-25T00:59:29;93938.38;;;0.03;100.00
39739;BME280;25422;48.286;8.484;2022-11-25T01:01:54;93940.81;;;-0.07;100.00
39739;BME280;25422;48.286;8.484;2022-11-25T01:04:20;93936.00;;;-0.12;100.00
39739;BME280;25422;48.286;8.484;2022-11-25T01:06:45;93935.34;;;-0.03;100.00
39739;BME280;25422;48.286;8.484;2022-11-25T01:09:13;93942.59;;;0.04;100.00
39739;BME280;25422;48.286;8.484;2022-11-25T01:11:39;93946.28;;;0.12;100.00
39739;BME280;25422;48.286;8.484;2022-11-25T01:14:04;93951.94;;;0.29;100.00
39739;BME280;25422;48.286;8.484;2022-11-25T01:16:30;93945.50;;;0.35;100.00
39739;BME280;25422;48.286;8.484;2022-11-25T01:18:57;93947.97;;;0.36;100.00
39739;BME280;25422;48.286;8.484;2022-11-25T01:21:25;93959.31;;;0.33;100.00
39739;BME280;25422;48.286;8.484;2022-11-25T01:23:52;93944.41;;;0.26;100.00
39739;BME280;25422;48.286;8.484;2022-11-25T01:26:21;93941.50;;;0.19;100.00
39739;BME280;25422;48.286;8.484;2022-11-25T01:28:47;93935.19;;;0.23;100.00
39739;BME280;25422;48.286;8.484;2022-11-25T01:31:18;93935.78;;;0.27;100.00
39739;BME280;25422;48.286;8.484;2022-11-25T01:33:45;93937.28;;;0.18;100.00
39739;BME280;25422;48.286;8.484;2022-11-25T01:36:13;93940.09;;;0.15;100.00
39739;BME280;25422;48.286;8.484;2022-11-25T01:38:41;93934.09;;;0.14;100.00
39739;BME280;25422;48.286;8.484;2022-11-25T01:41:10;93931.88;;;0.10;100.00
39739;BME280;25422;48.286;8.484;2022-11-25T01:43:36;93938.13;;;-0.06;100.00
39739;BME280;25422;48.286;8.484;2022-11-25T01:46:26;93938.78;;;-0.15;100.00
39739;BME280;25422;48.286;8.484;2022-11-25T01:48:59;93936.59;;;-0.08;100.00
39739;BME280;25422;48.286;8.484;2022-11-25T01:51:27;93926.38;;;0.03;100.00
39739;BME280;25422;48.286;8.484;2022-11-25T01:53:56;93930.13;;;0.10;100.00
39739;BME280;25422;48.286;8.484;2022-11-25T01:56:25;93923.44;;;0.08;100.00
39739;BME280;25422;48.286;8.484;2022-11-25T01:58:52;93922.97;;;0.03;100.00
39739;BME280;25422;48.286;8.484;2022-11-25T02:01:18;93918.53;;;0.05;100.00
39739;BME280;25422;48.286;8.484;2022-11-25T02:03:48;93922.97;;;0.03;100.00
39739;BME280;25422;48.286;8.484;2022-11-25T02:06:23;93911.38;;;-0.03;100.00
39739;BME280;25422;48.286;8.484;2022-11-25T02:08:53;93911.94;;;-0.11;100.00
39739;BME280;25422;48.286;8.484;2022-11-25T02:11:20;93917.28;;;-0.14;100.00
39739;BME280;25422;48.286;8.484;2022-11-25T02:13:49;93908.16;;;-0.18;100.00
39739;BME280;25422;48.286;8.484;2022-11-25T02:16:15;93926.03;;;-0.17;100.00
39739;BME280;25422;48.286;8.484;2022-11-25T02:18:41;93921.13;;;-0.20;100.00
39739;BME280;25422;48.286;8.484;2022-11-25T02:21:06;93917.94;;;-0.23;100.00
39739;BME280;25422;48.286;8.484;2022-11-25T02:23:54;93931.88;;;-0.26;100.00
39739;BME280;25422;48.286;8.484;2022-11-25T02:26:21;93920.97;;;-0.29;100.00
39739;BME280;25422;48.286;8.484;2022-11-25T02:28:48;93926.13;;;-0.29;100.00
39739;BME280;25422;48.286;8.484;2022-11-25T02:31:19;93932.91;;;-0.28;100.00
39739;BME280;25422;48.286;8.484;2022-11-25T02:33:45;93931.78;;;-0.13;100.00
39739;BME280;25422;48.286;8.484;2022-11-25T02:36:13;93926.41;;;-0.10;100.00
39739;BME280;25422;48.286;8.484;2022-11-25T02:38:47;93919.19;;;-0.05;100.00
39739;BME280;25422;48.286;8.484;2022-11-25T02:41:36;93918.03;;;-0.01;100.00
39739;BME280;25422;48.286;8.484;2022-11-25T02:44:04;93920.84;;;-0.04;100.00
39739;BME280;25422;48.286;8.484;2022-11-25T02:46:31;93921.09;;;-0.07;100.00
39739;BME280;25422;48.286;8.484;2022-11-25T02:48:59;93920.38;;;0.03;100.00
39739;BME280;25422;48.286;8.484;2022-11-25T02:51:28;93911.38;;;-0.03;100.00
39739;BME280;25422;48.286;8.484;2022-11-25T02:53:56;93920.72;;;-0.02;100.00
39739;BME280;25422;48.286;8.484;2022-11-25T02:56:26;93912.47;;;0.06;100.00
39739;BME280;25422;48.286;8.484;2022-11-25T02:58:52;93914.09;;;0.07;100.00
39739;BME280;25422;48.286;8.484;2022-11-25T03:01:18;93908.94;;;0.07;100.00
39739;BME280;25422;48.286;8.484;2022-11-25T03:03:43;93907.44;;;0.04;100.00
39739;BME280;25422;48.286;8.484;2022-11-25T03:06:09;93913.16;;;0.08;100.00
39739;BME280;25422;48.286;8.484;2022-11-25T03:08:35;93906.84;;;0.01;100.00
39739;BME280;25422;48.286;8.484;2022-11-25T03:11:04;93905.78;;;0.03;100.00
39739;BME280;25422;48.286;8.484;2022-11-25T03:13:31;93908.00;;;-0.04;100.00
39739;BME280;25422;48.286;8.484;2022-11-25T03:15:57;93905.41;;;-0.04;100.00
39739;BME280;25422;48.286;8.484;2022-11-25T03:18:23;93894.63;;;-0.09;100.00
39739;BME280;25422;48.286;8.484;2022-11-25T03:20:52;93896.72;;;-0.14;100.00
39739;BME280;25422;48.286;8.484;2022-11-25T03:23:18;93890.16;;;-0.18;100.00
39739;BME280;25422;48.286;8.484;2022-11-25T03:25:44;93891.09;;;-0.19;100.00
39739;BME280;25422;48.286;8.484;2022-11-25T03:28:09;93899.25;;;-0.25;100.00
39739;BME280;25422;48.286;8.484;2022-11-25T03:30:35;93896.56;;;-0.24;100.00
39739;BME280;25422;48.286;8.484;2022-11-25T03:33:01;93908.44;;;-0.34;100.00
39739;BME280;25422;48.286;8.484;2022-11-25T03:35:27;93906.81;;;-0.35;100.00
39739;BME280;25422;48.286;8.484;2022-11-25T03:37:54;93907.53;;;-0.33;100.00
39739;BME280;25422;48.286;8.484;2022-11-25T03:40:19;93909.50;;;-0.37;100.00
39739;BME280;25422;48.286;8.484;2022-11-25T03:42:45;93908.78;;;-0.39;100.00
39739;BME280;25422;48.286;8.484;2022-11-25T03:45:13;93904.56;;;-0.40;100.00
39739;BME280;25422;48.286;8.484;2022-11-25T03:47:42;93894.50;;;-0.43;100.00
39739;BME280;25422;48.286;8.484;2022-11-25T03:50:09;93886.69;;;-0.41;100.00
39739;BME280;25422;48.286;8.484;2022-11-25T03:52:35;93890.78;;;-0.39;100.00
39739;BME280;25422;48.286;8.484;2022-11-25T03:55:01;93891.81;;;-0.41;100.00
39739;BME280;25422;48.286;8.484;2022-11-25T03:57:30;93889.72;;;-0.47;100.00
39739;BME280;25422;48.286;8.484;2022-11-25T03:59:58;93895.69;;;-0.36;100.00
39739;BME280;25422;48.286;8.484;2022-11-25T04:02:24;93890.44;;;-0.34;100.00
39739;BME280;25422;48.286;8.484;2022-11-25T04:04:49;93894.53;;;-0.31;100.00
39739;BME280;25422;48.286;8.484;2022-11-25T04:07:16;93895.16;;;-0.28;100.00
39739;BME280;25422;48.286;8.484;2022-11-25T04:09:41;93890.81;;;-0.27;100.00
39739;BME280;25422;48.286;8.484;2022-11-25T04:12:08;93903.28;;;-0.34;100.00
39739;BME280;25422;48.286;8.484;2022-11-25T04:15:05;93902.09;;;-0.41;100.00
39739;BME280;25422;48.286;8.484;2022-11-25T04:17:30;93908.28;;;-0.44;100.00
39739;BME280;25422;48.286;8.484;2022-11-25T04:19:56;93905.81;;;-0.45;100.00
39739;BME280;25422;48.286;8.484;2022-11-25T04:22:22;93913.50;;;-0.32;100.00
39739;BME280;25422;48.286;8.484;2022-11-25T04:24:48;93911.47;;;-0.05;100.00
39739;BME280;25422;48.286;8.484;2022-11-25T04:27:19;93925.91;;;0.09;100.00
39739;BME280;25422;48.286;8.484;2022-11-25T04:29:45;93930.06;;;0.23;100.00
39739;BME280;25422;48.286;8.484;2022-11-25T04:32:13;93925.97;;;0.32;100.00
39739;BME280;25422;48.286;8.484;2022-11-25T04:34:38;93919.78;;;0.35;100.00
39739;BME280;25422;48.286;8.484;2022-11-25T04:37:04;93928.78;;;0.40;100.00
39739;BME280;25422;48.286;8.484;2022-11-25T04:39:29;93921.91;;;0.41;100.00
39739;BME280;25422;48.286;8.484;2022-11-25T04:41:59;93921.56;;;0.45;100.00
39739;BME280;25422;48.286;8.484;2022-11-25T04:44:43;93919.66;;;0.47;100.00
39739;BME280;25422;48.286;8.484;2022-11-25T04:47:08;93916.06;;;0.50;100.00
39739;BME280;25422;48.286;8.484;2022-11-25T04:49:35;93907.06;;;0.56;100.00
39739;BME280;25422;48.286;8.484;2022-11-25T04:52:01;93901.81;;;0.57;100.00
39739;BME280;25422;48.286;8.484;2022-11-25T04:54:26;93913.16;;;0.55;100.00
39739;BME280;25422;48.286;8.484;2022-11-25T04:56:53;93905.78;;;0.61;100.00
39739;BME280;25422;48.286;8.484;2022-11-25T04:59:19;93903.31;;;0.60;100.00
39739;BME280;25422;48.286;8.484;2022-11-25T05:02:03;93901.44;;;0.62;100.00
39739;BME280;25422;48.286;8.484;2022-11-25T05:04:35;93910.69;;;0.64;100.00
39739;BME280;25422;48.286;8.484;2022-11-25T05:07:01;93904.63;;;0.65;100.00
39739;BME280;25422;48.286;8.484;2022-11-25T05:09:27;93912.66;;;0.61;100.00
39739;BME280;25422;48.286;8.484;2022-11-25T05:12:19;93910.09;;;0.61;100.00
39739;BME280;25422;48.286;8.484;2022-11-25T05:14:45;93910.78;;;0.52;100.00
39739;BME280;25422;48.286;8.484;2022-11-25T05:17:19;93920.75;;;0.45;100.00
39739;BME280;25422;48.286;8.484;2022-11-25T05:19:45;93921.19;;;0.39;100.00
39739;BME280;25422;48.286;8.484;2022-11-25T05:22:14;93919.78;;;0.35;100.00
39739;BME280;25422;48.286;8.484;2022-11-25T05:24:42;93921.63;;;0.32;100.00
39739;BME280;25422;48.286;8.484;2022-11-25T05:27:08;93927.50;;;0.35;100.00
39739;BME280;25422;48.286;8.484;2022-11-25T05:29:34;93928.28;;;0.24;100.00
39739;BME280;25422;48.286;8.484;2022-11-25T05:31:59;93926.28;;;0.16;100.00
39739;BME280;25422;48.286;8.484;2022-11-25T05:34:25;93928.94;;;0.03;100.00
39739;BME280;25422;48.286;8.484;2022-11-25T05:36:51;93935.38;;;0.09;100.00
39739;BME280;25422;48.286;8.484;2022-11-25T05:39:18;93935.16;;;0.12;100.00
39739;BME280;25422;48.286;8.484;2022-11-25T05:42:12;93938.69;;;0.22;100.00
39739;BME280;25422;48.286;8.484;2022-11-25T05:44:37;93939.63;;;0.21;100.00
39739;BME280;25422;48.286;8.484;2022-11-25T05:47:03;93933.34;;;0.01;100.00
39739;BME280;25422;48.286;8.484;2022-11-25T05:49:29;93949.44;;;-0.08;100.00
39739;BME280;25422;48.286;8.484;2022-11-25T05:51:55;93953.88;;;-0.22;100.00
39739;BME280;25422;48.286;8.484;2022-11-25T05:54:23;93958.63;;;-0.28;100.00
39739;BME280;25422;48.286;8.484;2022-11-25T05:56:49;93960.81;;;-0.35;100.00
39739;BME280;25422;48.286;8.484;2022-11-25T05:59:14;93960.81;;;-0.35;100.00
39739;BME280;25422;48.286;8.484;2022-11-25T06:02:02;93975.38;;;-0.36;100.00
39739;BME280;25422;48.286;8.484;2022-11-25T06:04:28;93979.00;;;-0.38;100.00
39739;BME280;25422;48.286;8.484;2022-11-25T06:06:54;93980.97;;;-0.42;100.00
39739;BME280;25422;48.286;8.484;2022-11-25T06:09:21;93979.09;;;-0.40;100.00
39739;BME280;25422;48.286;8.484;2022-11-25T06:11:46;93974.25;;;-0.31;100.00
39739;BME280;25422;48.286;8.484;2022-11-25T06:14:14;93984.22;;;-0.27;100.00
39739;BME280;25422;48.286;8.484;2022-11-25T06:16:39;93984.50;;;-0.19;100.00
39739;BME280;25422;48.286;8.484;2022-11-25T06:19:17;93981.69;;;-0.15;100.00
39739;BME280;25422;48.286;8.484;2022-11-25T06:21:42;93981.25;;;-0.09;100.00
39739;BME280;25422;48.286;8.484;2022-11-25T06:24:08;93981.16;;;-0.08;100.00
39739;BME280;25422;48.286;8.484;2022-11-25T06:26:34;93982.13;;;0.03;100.00
39739;BME280;25422;48.286;8.484;2022-11-25T06:28:59;93982.13;;;0.03;100.00
39739;BME280;25422;48.286;8.484;2022-11-25T06:31:25;93983.44;;;0.08;100.00
39739;BME280;25422;48.286;8.484;2022-11-25T06:33:59;93986.41;;;0.15;100.00
39739;BME280;25422;48.286;8.484;2022-11-25T06:36:25;93988.63;;;0.20;100.00
39739;BME280;25422;48.286;8.484;2022-11-25T06:38:52;93987.59;;;0.22;100.00
39739;BME280;25422;48.286;8.484;2022-11-25T06:41:19;93987.34;;;0.25;100.00
39739;BME280;25422;48.286;8.484;2022-11-25T06:43:45;93991.81;;;0.23;100.00
39739;BME280;25422;48.286;8.484;2022-11-25T06:46:13;93985.81;;;0.23;100.00
39739;BME280;25422;48.286;8.484;2022-11-25T06:48:39;93994.84;;;0.28;100.00
39739;BME280;25422;48.286;8.484;2022-11-25T06:51:07;93992.28;;;0.28;100.00
39739;BME280;25422;48.286;8.484;2022-11-25T06:53:33;93998.13;;;0.30;100.00
39739;BME280;25422;48.286;8.484;2022-11-25T06:58:32;93997.97;;;0.45;100.00
39739;BME280;25422;48.286;8.484;2022-11-25T07:01:23;94003.31;;;0.42;100.00
39739;BME280;25422;48.286;8.484;2022-11-25T07:03:51;94012.00;;;0.52;100.00
39739;BME280;25422;48.286;8.484;2022-11-25T07:06:18;94021.16;;;0.56;100.00
39739;BME280;25422;48.286;8.484;2022-11-25T07:08:44;94013.91;;;0.61;100.00
39739;BME280;25422;48.286;8.484;2022-11-25T07:11:24;94014.72;;;0.62;100.00
39739;BME280;25422;48.286;8.484;2022-11-25T07:13:54;94015.53;;;0.62;100.00
39739;BME280;25422;48.286;8.484;2022-11-25T07:16:20;94021.28;;;0.66;100.00
39739;BME280;25422;48.286;8.484;2022-11-25T07:18:46;94020.84;;;0.72;100.00
39739;BME280;25422;48.286;8.484;2022-11-25T07:21:14;94027.72;;;0.72;100.00
39739;BME280;25422;48.286;8.484;2022-11-25T07:23:41;94027.06;;;0.81;100.00
39739;BME280;25422;48.286;8.484;2022-11-25T07:26:17;94035.88;;;0.90;100.00
39739;BME280;25422;48.286;8.484;2022-11-25T07:28:42;94035.63;;;0.93;100.00
39739;BME280;25422;48.286;8.484;2022-11-25T07:31:21;94044.16;;;0.93;100.00
39739;BME280;25422;48.286;8.484;2022-11-25T07:33:47;94044.16;;;0.93;100.00
39739;BME280;25422;48.286;8.484;2022-11-25T07:36:13;94041.72;;;0.92;100.00
39739;BME280;25422;48.286;8.484;2022-11-25T07:38:39;94045.81;;;0.94;100.00
39739;BME280;25422;48.286;8.484;2022-11-25T07:41:07;94047.22;;;0.98;100.00
39739;BME280;25422;48.286;8.484;2022-11-25T07:43:33;94044.91;;;1.07;100.00
39739;BME280;25422;48.286;8.484;2022-11-25T07:46:15;94054.75;;;1.13;100.00
39739;BME280;25422;48.286;8.484;2022-11-25T07:48:43;94063.41;;;1.12;100.00
39739;BME280;25422;48.286;8.484;2022-11-25T07:51:30;94066.00;;;1.23;100.00
39739;BME280;25422;48.286;8.484;2022-11-25T07:53:57;94069.84;;;1.29;100.00
39739;BME280;25422;48.286;8.484;2022-11-25T07:56:23;94067.78;;;1.45;100.00
39739;BME280;25422;48.286;8.484;2022-11-25T07:58:49;94074.09;;;1.41;100.00
39739;BME280;25422;48.286;8.484;2022-11-25T08:01:15;94070.13;;;1.48;100.00
39739;BME280;25422;48.286;8.484;2022-11-25T08:03:42;94073.97;;;1.54;100.00
39739;BME280;25422;48.286;8.484;2022-11-25T08:06:10;94074.34;;;1.61;100.00
39739;BME280;25422;48.286;8.484;2022-11-25T08:08:38;94064.97;;;1.71;100.00
39739;BME280;25422;48.286;8.484;2022-11-25T08:11:15;94072.22;;;1.77;100.00
39739;BME280;25422;48.286;8.484;2022-11-25T08:13:41;94074.44;;;1.82;100.00
39739;BME280;25422;48.286;8.484;2022-11-25T08:16:09;94079.13;;;1.99;100.00
39739;BME280;25422;48.286;8.484;2022-11-25T08:18:34;94073.84;;;2.01;100.00
39739;BME280;25422;48.286;8.484;2022-11-25T08:21:02;94080.16;;;2.08;100.00
39739;BME280;25422;48.286;8.484;2022-11-25T08:23:30;94081.19;;;2.17;100.00
39739;BME280;25422;48.286;8.484;2022-11-25T08:25:55;94091.13;;;2.33;100.00
39739;BME280;25422;48.286;8.484;2022-11-25T08:28:21;94078.25;;;2.54;100.00
39739;BME280;25422;48.286;8.484;2022-11-25T08:30:47;94082.13;;;2.60;100.00
39739;BME280;25422;48.286;8.484;2022-11-25T08:33:12;94083.84;;;2.70;100.00
39739;BME280;25422;48.286;8.484;2022-11-25T08:35:37;94090.38;;;2.75;100.00
39739;BME280;25422;48.286;8.484;2022-11-25T08:38:05;94082.63;;;2.75;100.00
39739;BME280;25422;48.286;8.484;2022-11-25T08:40:32;94085.88;;;2.88;100.00
39739;BME280;25422;48.286;8.484;2022-11-25T08:42:57;94085.25;;;2.96;100.00
39739;BME280;25422;48.286;8.484;2022-11-25T08:45:23;94078.75;;;3.01;100.00
39739;BME280;25422;48.286;8.484;2022-11-25T08:47:48;94084.25;;;3.08;100.00
39739;BME280;25422;48.286;8.484;2022-11-25T08:50:14;94097.66;;;3.23;100.00
39739;BME280;25422;48.286;8.484;2022-11-25T08:52:40;94090.94;;;3.42;100.00
39739;BME280;25422;48.286;8.484;2022-11-25T08:55:06;94097.94;;;3.51;100.00
39739;BME280;25422;48.286;8.484;2022-11-25T08:57:33;94094.00;;;3.78;100.00
39739;BME280;25422;48.286;8.484;2022-11-25T08:59:59;94086.78;;;4.32;100.00
39739;BME280;25422;48.286;8.484;2022-11-25T09:02:24;94096.13;;;4.83;100.00
39739;BME280;25422;48.286;8.484;2022-11-25T09:04:50;94090.84;;;5.42;100.00
39739;BME280;25422;48.286;8.484;2022-11-25T09:07:15;94096.28;;;5.58;100.00
39739;BME280;25422;48.286;8.484;2022-11-25T09:09:41;94097.72;;;5.33;100.00
39739;BME280;25422;48.286;8.484;2022-11-25T09:12:07;94087.63;;;4.81;100.00
39739;BME280;25422;48.286;8.484;2022-11-25T09:14:32;94092.69;;;4.63;100.00
39739;BME280;25422;48.286;8.484;2022-11-25T09:16:58;94098.91;;;4.31;100.00
39739;BME280;25422;48.286;8.484;2022-11-25T09:19:23;94094.78;;;4.19;100.00
39739;BME280;25422;48.286;8.484;2022-11-25T09:21:48;94096.00;;;4.15;100.00
39739;BME280;25422;48.286;8.484;2022-11-25T09:24:14;94103.03;;;3.93;100.00
39739;BME280;25422;48.286;8.484;2022-11-25T09:26:39;94109.34;;;4.00;100.00
39739;BME280;25422;48.286;8.484;2022-11-25T09:29:06;94107.09;;;4.27;100.00
39739;BME280;25422;48.286;8.484;2022-11-25T09:31:32;94102.78;;;4.47;100.00
39739;BME280;25422;48.286;8.484;2022-11-25T09:33:58;94101.16;;;4.65;100.00
39739;BME280;25422;48.286;8.484;2022-11-25T09:36:24;94093.38;;;4.75;100.00
39739;BME280;25422;48.286;8.484;2022-11-25T09:38:50;94096.53;;;4.88;100.00
39739;BME280;25422;48.286;8.484;2022-11-25T09:45:19;94096.38;;;5.00;100.00
39739;BME280;25422;48.286;8.484;2022-11-25T09:53:16;94100.59;;;5.20;100.00
39739;BME280;25422;48.286;8.484;2022-11-25T09:55:48;94105.91;;;5.29;100.00
39739;BME280;25422;48.286;8.484;2022-11-25T10:00:54;94108.09;;;5.33;100.00
39739;BME280;25422;48.286;8.484;2022-11-25T10:06:07;94105.91;;;5.29;100.00
39739;BME280;25422;48.286;8.484;2022-11-25T10:08:42;94112.59;;;5.21;100.00
39739;BME280;25422;48.286;8.484;2022-11-25T10:19:30;94119.00;;;5.47;100.00
39739;BME280;25422;48.286;8.484;2022-11-25T10:22:09;94117.75;;;5.51;100.00
39739;BME280;25422;48.286;8.484;2022-11-25T10:24:37;94119.47;;;5.60;100.00
39739;BME280;25422;48.286;8.484;2022-11-25T10:27:04;94119.03;;;5.74;100.00
39739;BME280;25422;48.286;8.484;2022-11-25T10:29:36;94117.06;;;5.96;100.00
39739;BME280;25422;48.286;8.484;2022-11-25T10:32:24;94127.63;;;6.22;100.00
39739;BME280;25422;48.286;8.484;2022-11-25T10:34:58;94123.28;;;6.23;100.00
39739;BME280;25422;48.286;8.484;2022-11-25T10:37:30;94126.53;;;6.25;100.00
39739;BME280;25422;48.286;8.484;2022-11-25T10:39:58;94129.91;;;6.35;100.00
39739;BME280;25422;48.286;8.484;2022-11-25T10:42:26;94132.66;;;6.34;100.00
39739;BME280;25422;48.286;8.484;2022-11-25T10:44:53;94142.22;;;6.33;100.00
39739;BME280;25422;48.286;8.484;2022-11-25T10:51:05;94138.00;;;6.32;100.00
39739;BME280;25422;48.286;8.484;2022-11-25T10:53:34;94134.81;;;6.38;100.00
39739;BME280;25422;48.286;8.484;2022-11-25T10:56:02;94141.25;;;6.34;100.00
39739;BME280;25422;48.286;8.484;2022-11-25T10:58:39;94154.06;;;6.18;100.00
39739;BME280;25422;48.286;8.484;2022-11-25T11:01:20;94142.66;;;6.29;100.00
39739;BME280;25422;48.286;8.484;2022-11-25T11:04:01;94137.84;;;6.34;100.00
39739;BME280;25422;48.286;8.484;2022-11-25T11:06:42;94140.00;;;6.38;100.00
39739;BME280;25422;48.286;8.484;2022-11-25T11:09:33;94141.81;;;6.56;100.00
39739;BME280;25422;48.286;8.484;2022-11-25T11:14:38;94144.56;;;6.54;100.00
39739;BME280;25422;48.286;8.484;2022-11-25T11:17:04;94147.72;;;6.58;100.00
39739;BME280;25422;48.286;8.484;2022-11-25T11:19:29;94151.75;;;6.43;100.00
39739;BME280;25422;48.286;8.484;2022-11-25T11:21:57;94157.13;;;6.31;100.00
39739;BME280;25422;48.286;8.484;2022-11-25T11:24:38;94157.59;;;6.17;100.00
39739;BME280;25422;48.286;8.484;2022-11-25T11:27:16;94163.38;;;6.11;100.00
39739;BME280;25422;48.286;8.484;2022-11-25T11:29:43;94168.84;;;6.07;100.00
39739;BME280;25422;48.286;8.484;2022-11-25T11:32:23;94166.69;;;6.03;100.00
39739;BME280;25422;48.286;8.484;2022-11-25T11:35:05;94167.13;;;5.98;100.00
39739;BME280;25422;48.286;8.484;2022-11-25T11:40:18;94167.22;;;6.06;100.00
39739;BME280;25422;48.286;8.484;2022-11-25T11:43:08;94168.47;;;6.02;100.00
39739;BME280;25422;48.286;8.484;2022-11-25T11:56:21;94193.97;;;6.17;100.00
39739;BME280;25422;48.286;8.484;2022-11-25T11:58:53;94189.06;;;6.14;100.00
39739;BME280;25422;48.286;8.484;2022-11-25T12:04:20;94188.38;;;6.12;100.00
39739;BME280;25422;48.286;8.484;2022-11-25T12:09:23;94200.25;;;6.14;100.00
39739;BME280;25422;48.286;8.484;2022-11-25T12:11:57;94194.16;;;6.05;100.00
39739;BME280;25422;48.286;8.484;2022-11-25T12:14:42;94200.31;;;6.04;100.00
39739;BME280;25422;48.286;8.484;2022-11-25T12:17:48;94204.53;;;6.05;100.00
39739;BME280;25422;48.286;8.484;2022-11-25T12:20:08;94203.84;;;6.03;100.00
39739;BME280;25422;48.286;8.484;2022-11-25T12:22:49;94203.34;;;6.00;100.00
39739;BME280;25422;48.286;8.484;2022-11-25T12:25:21;94202.09;;;5.94;100.00
39739;BME280;25422;48.286;8.484;2022-11-25T12:28:17;94206.44;;;5.94;100.00
39739;BME280;25422;48.286;8.484;2022-11-25T12:31:05;94198.44;;;5.77;100.00
39739;BME280;25422;48.286;8.484;2022-11-25T12:34:01;94208.53;;;5.70;100.00
39739;BME280;25422;48.286;8.484;2022-11-25T12:36:39;94211.00;;;5.62;100.00
39739;BME280;25422;48.286;8.484;2022-11-25T12:39:18;94215.50;;;5.60;100.00
39739;BME280;25422;48.286;8.484;2022-11-25T12:42:01;94210.31;;;5.60;100.00
39739;BME280;25422;48.286;8.484;2022-11-25T12:44:45;94218.00;;;5.62;100.00
39739;BME280;25422;48.286;8.484;2022-11-25T12:47:13;94226.59;;;5.62;100.00
39739;BME280;25422;48.286;8.484;2022-11-25T12:49:47;94226.72;;;5.61;100.00
39739;BME280;25422;48.286;8.484;2022-11-25T13:00:21;94248.97;;;5.53;100.00
39739;BME280;25422;48.286;8.484;2022-11-25T13:06:24;94258.81;;;5.60;100.00
39739;BME280;25422;48.286;8.484;2022-11-25T13:09:03;94260.88;;;5.76;100.00
39739;BME280;25422;48.286;8.484;2022-11-25T13:14:32;94257.28;;;6.16;100.00
39739;BME280;25422;48.286;8.484;2022-11-25T13:17:08;94268.47;;;5.97;100.00
39739;BME280;25422;48.286;8.484;2022-11-25T13:19:36;94274.13;;;5.82;100.00
39739;BME280;25422;48.286;8.484;2022-11-25T13:22:03;94278.09;;;5.77;100.00
39739;BME280;25422;48.286;8.484;2022-11-25T13:24:32;94289.44;;;5.66;100.00
39739;BME280;25422;48.286;8.484;2022-11-25T13:26:58;94272.06;;;5.66;100.00
39739;BME280;25422;48.286;8.484;2022-11-25T13:34:23;94280.81;;;5.75;100.00
39739;BME280;25422;48.286;8.484;2022-11-25T13:36:53;94274.13;;;5.63;100.00
39739;BME280;25422;48.286;8.484;2022-11-25T13:42:18;94273.72;;;5.67;100.00
39739;BME280;25422;48.286;8.484;2022-11-25T13:47:31;94284.78;;;5.40;100.00
39739;BME280;25422;48.286;8.484;2022-11-25T13:50:01;94281.63;;;5.36;100.00
39739;BME280;25422;48.286;8.484;2022-11-25T13:53:04;94294.88;;;5.33;100.00
39739;BME280;25422;48.286;8.484;2022-11-25T13:55:32;94294.88;;;5.33;100.00
39739;BME280;25422;48.286;8.484;2022-11-25T13:58:05;94288.03;;;5.32;100.00
39739;BME280;25422;48.286;8.484;2022-11-25T14:08:36;94310.97;;;5.27;100.00
39739;BME280;25422;48.286;8.484;2022-11-25T14:11:35;94303.06;;;5.38;100.00
39739;BME280;25422;48.286;8.484;2022-11-25T14:22:09;94322.88;;;5.49;100.00
39739;BME280;25422;48.286;8.484;2022-11-25T14:24:42;94341.72;;;5.51;100.00
39739;BME280;25422;48.286;8.484;2022-11-25T14:27:27;94340.50;;;5.46;100.00
39739;BME280;25422;48.286;8.484;2022-11-25T14:30:03;94341.16;;;5.28;100.00
39739;BME280;25422;48.286;8.484;2022-11-25T14:32:38;94349.44;;;5.22;100.00
39739;BME280;25422;48.286;8.484;2022-11-25T14:40:18;94352.97;;;5.11;100.00
39739;BME280;25422;48.286;8.484;2022-11-25T14:42:47;94359.00;;;5.12;100.00
39739;BME280;25422;48.286;8.484;2022-11-25T14:45:22;94371.69;;;5.15;100.00
39739;BME280;25422;48.286;8.484;2022-11-25T14:47:47;94378.66;;;5.14;100.00